createdAt,value
2023-01-28T00:03:19.795Z,60.30
2023-01-28T00:07:22.811Z,60.30
2023-01-28T00:11:27.067Z,60.30
2023-01-28T00:15:29.958Z,60.40
2023-01-28T00:19:32.741Z,60.40
2023-01-28T00:23:37.457Z,60.40
2023-01-28T00:27:40.186Z,60.60
2023-01-28T00:31:43.069Z,60.60
2023-01-28T00:35:45.832Z,60.70
2023-01-28T00:39:49.519Z,60.70
2023-01-28T00:43:54.055Z,60.80
2023-01-28T00:47:56.815Z,60.90
2023-01-28T00:51:59.779Z,60.90
2023-01-28T00:56:03.467Z,61.00
2023-01-28T01:00:09.681Z,61.10
2023-01-28T01:04:12.463Z,61.10
2023-01-28T01:08:15.321Z,61.10
2023-01-28T01:12:18.314Z,61.20
2023-01-28T01:16:22.455Z,61.30
2023-01-28T01:20:28.425Z,61.30
2023-01-28T01:24:34.021Z,61.30
2023-01-28T01:28:37.624Z,61.30
2023-01-28T01:32:40.540Z,61.30
2023-01-28T01:36:46.168Z,61.20
2023-01-28T01:40:49.430Z,61.10
2023-01-28T01:45:08.820Z,61.00
2023-01-28T01:49:14.590Z,60.90
2023-01-28T01:53:21.071Z,60.80
2023-01-28T01:57:25.675Z,60.80
2023-01-28T02:01:31.197Z,60.80
2023-01-28T02:05:33.962Z,60.90
2023-01-28T02:09:38.679Z,61.00
2023-01-28T02:13:48.091Z,61.00
2023-01-28T02:17:52.299Z,61.00
2023-01-28T02:22:00.922Z,60.90
2023-01-28T02:26:09.748Z,60.90
2023-01-28T02:30:25.173Z,61.00
2023-01-28T02:34:39.975Z,61.00
2023-01-28T02:38:48.076Z,61.10
2023-01-28T02:42:51.678Z,61.10
2023-01-28T02:47:13.254Z,61.10
2023-01-28T02:52:03.604Z,61.10
2023-01-28T02:56:29.413Z,61.10
2023-01-28T03:00:56.731Z,61.20
2023-01-28T03:05:04.447Z,61.20
2023-01-28T03:09:24.731Z,61.30
2023-01-28T03:13:48.109Z,61.40
2023-01-28T03:18:45.041Z,61.40
2023-01-28T03:23:12.359Z,61.30
2023-01-28T03:27:50.631Z,61.50
2023-01-28T03:32:13.381Z,61.50
2023-01-28T03:36:35.029Z,61.50
2023-01-28T03:40:52.756Z,61.50
2023-01-28T03:45:07.016Z,61.60
2023-01-28T03:49:11.526Z,61.60
2023-01-28T03:53:16.889Z,61.60
2023-01-28T03:57:31.573Z,61.60
2023-01-28T04:01:34.724Z,61.70
2023-01-28T04:05:37.675Z,61.80
2023-01-28T04:09:40.590Z,61.70
2023-01-28T04:14:02.458Z,61.70
2023-01-28T04:18:16.815Z,61.70
2023-01-28T04:22:19.785Z,61.70
2023-01-28T04:26:22.757Z,61.80
2023-01-28T04:30:26.363Z,61.70
2023-01-28T04:34:55.219Z,61.70
2023-01-28T04:39:04.627Z,61.70
2023-01-28T04:43:31.173Z,61.70
2023-01-28T04:48:09.519Z,61.70
2023-01-28T04:52:41.628Z,61.70
2023-01-28T04:56:53.668Z,61.80
2023-01-28T05:00:58.271Z,61.80
2023-01-28T05:05:05.003Z,61.80
2023-01-28T05:09:33.933Z,61.70
2023-01-28T05:13:37.120Z,61.70
2023-01-28T05:17:40.686Z,61.80
2023-01-28T05:21:43.784Z,61.80
2023-01-28T05:26:07.603Z,61.80
2023-01-28T05:30:11.207Z,61.80
2023-01-28T05:34:14.324Z,61.80
2023-01-28T05:38:17.465Z,61.80
2023-01-28T05:42:22.549Z,61.70
2023-01-28T05:46:29.626Z,61.60
2023-01-28T05:50:50.142Z,61.60
2023-01-28T05:54:56.324Z,61.60
2023-01-28T05:58:59.812Z,61.60
2023-01-28T06:03:02.767Z,61.60
2023-01-28T06:07:06.434Z,61.60
2023-01-28T06:11:09.947Z,61.50
2023-01-28T06:15:16.492Z,61.50
2023-01-28T06:19:34.929Z,61.50
2023-01-28T06:23:38.337Z,61.50
2023-01-28T06:27:44.868Z,61.50
2023-01-28T06:31:47.999Z,61.50
2023-01-28T06:35:50.789Z,61.50
2023-01-28T06:39:53.595Z,61.50
2023-01-28T06:44:00.213Z,61.50
2023-01-28T06:48:04.186Z,61.50
2023-01-28T06:52:07.343Z,61.40
2023-01-28T06:56:10.450Z,61.40
2023-01-28T07:00:16.223Z,61.40
2023-01-28T07:04:26.629Z,61.30
2023-01-28T07:08:31.427Z,61.20
2023-01-28T07:12:34.211Z,61.20
2023-01-28T07:16:37.187Z,61.20
2023-01-28T07:20:40.041Z,61.20
2023-01-28T07:24:42.893Z,61.20
2023-01-28T07:28:46.065Z,61.20
2023-01-28T07:32:54.650Z,61.10
2023-01-28T07:36:59.253Z,61.00
2023-01-28T07:41:02.285Z,61.10
2023-01-28T07:45:06.506Z,61.10
2023-01-28T07:49:09.253Z,61.00
2023-01-28T07:53:12.396Z,61.10
2023-01-28T07:57:15.687Z,61.00
2023-01-28T08:01:19.677Z,60.90
2023-01-28T08:05:22.832Z,60.90
2023-01-28T08:09:25.695Z,61.00
2023-01-28T08:13:31.546Z,60.90
2023-01-28T08:17:34.628Z,60.80
2023-01-28T08:21:37.429Z,60.70
2023-01-28T08:25:40.397Z,60.60
2023-01-28T08:29:43.978Z,60.40
2023-01-28T08:33:46.829Z,60.30
2023-01-28T08:37:49.485Z,60.00
2023-01-28T08:41:52.295Z,60.10
2023-01-28T08:45:55.192Z,60.00
2023-01-28T08:49:58.168Z,59.90
2023-01-28T08:54:02.200Z,59.80
2023-01-28T08:58:12.497Z,59.50
2023-01-28T09:02:30.354Z,59.50
2023-01-28T09:06:34.223Z,59.40
2023-01-28T09:10:37.980Z,59.20
2023-01-28T09:14:40.794Z,59.00
2023-01-28T09:18:43.624Z,59.00
2023-01-28T09:22:46.440Z,58.80
2023-01-28T09:26:49.995Z,58.70
2023-01-28T09:30:52.705Z,58.50
2023-01-28T09:34:55.591Z,58.40
2023-01-28T09:38:58.730Z,58.20
2023-01-28T09:43:20.927Z,57.70
2023-01-28T09:47:35.605Z,57.50
2023-01-28T09:51:46.232Z,57.20
2023-01-28T09:56:27.890Z,57.00
2023-01-28T10:00:53.035Z,56.80
2023-01-28T10:05:08.704Z,56.30
2023-01-28T10:09:23.540Z,55.70
2023-01-28T10:13:41.929Z,55.80
2023-01-28T10:17:48.692Z,54.90
2023-01-28T10:22:05.849Z,54.60
2023-01-28T10:26:25.736Z,54.30
2023-01-28T10:30:32.618Z,53.50
2023-01-28T10:34:35.894Z,52.90
2023-01-28T10:38:38.641Z,52.30
2023-01-28T10:42:41.564Z,52.30
2023-01-28T10:46:48.208Z,52.10
2023-01-28T10:51:02.013Z,51.60
2023-01-28T10:55:06.804Z,51.10
2023-01-28T10:59:22.401Z,51.30
2023-01-28T11:03:29.312Z,50.20
2023-01-28T11:07:32.276Z,50.00
2023-01-28T11:11:35.021Z,50.20
2023-01-28T11:15:47.083Z,50.10
2023-01-28T11:19:50.553Z,49.80
2023-01-28T11:24:02.688Z,49.60
2023-01-28T11:28:18.245Z,48.50
2023-01-28T11:32:25.156Z,47.90
2023-01-28T11:36:33.652Z,48.50
2023-01-28T11:40:36.506Z,48.50
2023-01-28T11:44:40.393Z,48.80
2023-01-28T11:49:07.406Z,48.80
2023-01-28T11:53:40.605Z,48.60
2023-01-28T11:58:18.580Z,48.60
2023-01-28T12:02:35.495Z,48.40
2023-01-28T12:06:39.238Z,48.10
2023-01-28T12:11:02.941Z,48.30
2023-01-28T12:15:43.262Z,48.40
2023-01-28T12:19:58.148Z,48.60
2023-01-28T12:24:16.335Z,48.00
2023-01-28T12:28:47.154Z,47.80
2023-01-28T12:33:05.084Z,47.70
2023-01-28T12:37:35.920Z,47.60
2023-01-28T12:41:44.016Z,47.90
2023-01-28T12:45:59.967Z,48.70
2023-01-28T12:50:12.452Z,49.10
2023-01-28T12:54:21.110Z,49.00
2023-01-28T12:58:40.928Z,49.40
2023-01-28T13:02:50.378Z,49.40
2023-01-28T13:07:15.736Z,49.50
2023-01-28T13:11:20.217Z,49.70
2023-01-28T13:15:23.788Z,49.50
2023-01-28T13:19:38.020Z,49.60
2023-01-28T13:23:45.631Z,49.20
2023-01-28T13:28:00.462Z,49.40
2023-01-28T13:32:24.306Z,49.30
2023-01-28T13:36:37.020Z,49.40
2023-01-28T13:40:42.037Z,49.40
2023-01-28T13:44:44.883Z,49.30
2023-01-28T13:48:54.869Z,49.10
2023-01-28T13:53:04.227Z,48.90
2023-01-28T13:57:31.677Z,48.90
2023-01-28T14:02:00.317Z,49.20
2023-01-28T14:06:31.060Z,49.20
2023-01-28T14:10:55.437Z,49.20
2023-01-28T14:15:37.808Z,49.70
2023-01-28T14:19:41.051Z,49.80
2023-01-28T14:23:57.876Z,50.10
2023-01-28T14:28:03.060Z,50.20
2023-01-28T14:32:29.347Z,50.40
2023-01-28T14:36:35.931Z,50.60
2023-01-28T14:40:40.248Z,50.60
2023-01-28T14:44:45.270Z,50.60
2023-01-28T14:48:48.112Z,50.80
2023-01-28T14:52:56.659Z,50.90
2023-01-28T14:57:17.679Z,51.10
2023-01-28T15:01:29.326Z,51.30
2023-01-28T15:05:32.241Z,51.60
2023-01-28T15:09:35.140Z,51.70
2023-01-28T15:13:49.609Z,51.80
2023-01-28T15:17:53.554Z,52.00
2023-01-28T15:21:59.649Z,52.20
2023-01-28T15:26:17.122Z,52.40
2023-01-28T15:30:26.706Z,52.60
2023-01-28T15:34:32.557Z,52.70
2023-01-28T15:38:35.389Z,52.90
2023-01-28T15:42:40.141Z,53.10
2023-01-28T15:46:43.144Z,53.40
2023-01-28T15:50:46.189Z,53.60
2023-01-28T15:54:52.536Z,53.90
2023-01-28T15:58:56.475Z,54.20
2023-01-28T16:03:08.986Z,54.40
2023-01-28T16:07:12.307Z,54.70
2023-01-28T16:11:23.747Z,55.00
2023-01-28T16:15:26.754Z,55.50
2023-01-28T16:19:46.204Z,55.60
2023-01-28T16:23:59.368Z,56.10
2023-01-28T16:28:03.342Z,56.20
2023-01-28T16:32:39.351Z,56.50
2023-01-28T16:36:42.610Z,56.80
2023-01-28T16:40:46.893Z,56.90
2023-01-28T16:44:50.673Z,57.10
2023-01-28T16:48:54.092Z,57.30
2023-01-28T16:52:58.539Z,57.60
2023-01-28T16:57:01.517Z,57.80
2023-01-28T17:01:04.774Z,57.80
2023-01-28T17:05:07.906Z,58.00
2023-01-28T17:09:13.269Z,58.20
2023-01-28T17:13:16.412Z,58.40
2023-01-28T17:17:19.293Z,58.50
2023-01-28T17:21:22.617Z,58.80
2023-01-28T17:25:25.681Z,58.90
2023-01-28T17:29:29.809Z,59.10
2023-01-28T17:33:32.804Z,59.20
2023-01-28T17:37:38.329Z,59.40
2023-01-28T17:41:41.205Z,59.50
2023-01-28T17:45:44.432Z,59.60
2023-01-28T17:49:47.188Z,59.70
2023-01-28T17:53:52.079Z,59.70
2023-01-28T17:57:55.181Z,60.00
2023-01-28T18:01:58.058Z,60.00
2023-01-28T18:06:01.185Z,60.10
2023-01-28T18:10:04.313Z,60.20
2023-01-28T18:14:07.605Z,60.30
2023-01-28T18:18:10.344Z,60.30
2023-01-28T18:22:13.249Z,60.40
2023-01-28T18:26:16.071Z,60.60
2023-01-28T18:30:19.124Z,60.60
2023-01-28T18:34:24.002Z,60.50
2023-01-28T18:38:26.968Z,60.70
2023-01-28T18:42:29.915Z,60.70
2023-01-28T18:46:32.721Z,60.80
2023-01-28T18:50:35.963Z,60.80
2023-01-28T18:54:38.751Z,60.90
2023-01-28T18:58:41.762Z,60.90
2023-01-28T19:02:44.892Z,61.10
2023-01-28T19:06:48.057Z,61.10
2023-01-28T19:10:57.108Z,61.10
2023-01-28T19:14:59.971Z,61.30
2023-01-28T19:19:03.854Z,61.30
2023-01-28T19:23:07.520Z,61.50
2023-01-28T19:27:10.282Z,61.60
2023-01-28T19:31:13.057Z,61.60
2023-01-28T19:35:16.317Z,61.70
2023-01-28T19:39:19.252Z,61.70
2023-01-28T19:43:22.335Z,61.70
2023-01-28T19:47:25.346Z,61.60
2023-01-28T19:51:28.251Z,61.80
2023-01-28T19:55:31.295Z,61.70
2023-01-28T19:59:34.321Z,61.70
2023-01-28T20:03:37.666Z,61.60
2023-01-28T20:07:40.584Z,61.60
2023-01-28T20:11:43.609Z,61.60
2023-01-28T20:15:46.332Z,61.60
2023-01-28T20:19:49.205Z,61.70
2023-01-28T20:23:54.255Z,61.80
2023-01-28T20:27:57.245Z,61.90
2023-01-28T20:32:15.461Z,61.90
2023-01-28T20:36:20.568Z,61.90
2023-01-28T20:40:23.352Z,61.90
2023-01-28T20:44:29.913Z,61.90
2023-01-28T20:48:33.747Z,61.90
2023-01-28T20:52:36.645Z,61.90
2023-01-28T20:56:39.633Z,62.00
2023-01-28T21:00:43.309Z,62.10
2023-01-28T21:04:46.317Z,62.00
2023-01-28T21:08:49.320Z,62.10
2023-01-28T21:12:52.715Z,62.20
2023-01-28T21:16:55.661Z,62.20
2023-01-28T21:21:19.110Z,62.30
2023-01-28T21:25:22.922Z,62.50
2023-01-28T21:29:25.874Z,62.40
2023-01-28T21:33:28.694Z,62.50
2023-01-28T21:37:32.965Z,62.50
2023-01-28T21:41:35.976Z,62.50
2023-01-28T21:45:38.965Z,62.60
2023-01-28T21:49:42.472Z,62.60
2023-01-28T21:53:45.286Z,62.60
2023-01-28T21:57:48.270Z,62.60
2023-01-28T22:01:51.107Z,62.60
2023-01-28T22:05:55.428Z,62.60
2023-01-28T22:09:58.446Z,62.70
2023-01-28T22:14:01.166Z,62.70
2023-01-28T22:18:04.098Z,62.70
2023-01-28T22:22:06.988Z,62.70
2023-01-28T22:26:09.839Z,62.80
2023-01-28T22:30:12.948Z,62.80
2023-01-28T22:34:16.609Z,62.80
2023-01-28T22:38:19.330Z,62.80
2023-01-28T22:42:22.090Z,62.90
2023-01-28T22:46:25.469Z,62.90
2023-01-28T22:50:28.706Z,62.90
2023-01-28T22:54:31.585Z,62.90
2023-01-28T22:58:34.444Z,63.00
2023-01-28T23:02:38.339Z,63.00
2023-01-28T23:06:41.209Z,62.90
2023-01-28T23:10:50.094Z,63.00
2023-01-28T23:15:11.444Z,63.00
2023-01-28T23:19:33.074Z,62.90
2023-01-28T23:23:55.020Z,62.90
2023-01-28T23:27:57.872Z,63.00
2023-01-28T23:32:07.365Z,63.00
2023-01-28T23:36:10.281Z,63.00
2023-01-28T23:40:14.317Z,63.00
2023-01-28T23:44:18.431Z,62.90
2023-01-28T23:48:21.294Z,63.00
2023-01-28T23:52:24.507Z,62.90
2023-01-28T23:56:27.335Z,63.00
